createdAt,value
2023-01-29T00:01:43.477Z,82.67
2023-01-29T00:04:11.290Z,82.65
2023-01-29T00:06:39.664Z,83.70
2023-01-29T00:09:07.239Z,82.77
2023-01-29T00:11:34.936Z,82.24
2023-01-29T00:14:02.476Z,81.83
2023-01-29T00:16:29.999Z,81.81
2023-01-29T00:18:58.854Z,82.11
2023-01-29T00:21:26.506Z,82.04
2023-01-29T00:23:55.476Z,81.83
2023-01-29T00:26:23.184Z,81.80
2023-01-29T00:28:50.762Z,81.68
2023-01-29T00:31:21.180Z,81.43
2023-01-29T00:33:49.407Z,81.54
2023-01-29T00:36:20.438Z,81.26
2023-01-29T00:38:54.710Z,81.59
2023-01-29T00:41:40.782Z,81.64
2023-01-29T00:44:26.810Z,82.54
2023-01-29T00:46:57.482Z,82.27
2023-01-29T00:49:25.837Z,82.03
2023-01-29T00:52:12.101Z,82.17
2023-01-29T00:54:39.700Z,82.06
2023-01-29T00:57:07.246Z,81.56
2023-01-29T00:59:34.771Z,81.96
2023-01-29T01:02:20.222Z,81.82
2023-01-29T01:04:47.778Z,82.29
2023-01-29T01:07:16.691Z,82.47
2023-01-29T01:10:01.714Z,82.30
2023-01-29T01:12:29.975Z,81.88
2023-01-29T01:14:57.654Z,82.35
2023-01-29T01:17:25.884Z,82.49
2023-01-29T01:19:53.531Z,81.97
2023-01-29T01:22:22.507Z,82.48
2023-01-29T01:24:50.410Z,82.75
2023-01-29T01:27:19.553Z,82.32
2023-01-29T01:29:47.324Z,82.12
2023-01-29T01:32:15.855Z,82.05
2023-01-29T01:34:45.247Z,82.10
2023-01-29T01:37:13.084Z,81.78
2023-01-29T01:39:42.044Z,81.59
2023-01-29T01:42:13.106Z,81.50
2023-01-29T01:45:00.596Z,80.80
2023-01-29T01:47:32.400Z,80.64
2023-01-29T01:50:03.267Z,81.39
2023-01-29T01:52:32.333Z,81.75
2023-01-29T01:55:01.677Z,82.06
2023-01-29T01:57:30.134Z,82.30
2023-01-29T02:00:00.984Z,81.94
2023-01-29T02:02:46.518Z,81.22
2023-01-29T02:05:32.799Z,81.57
2023-01-29T02:08:18.027Z,81.70
2023-01-29T02:10:49.855Z,82.51
2023-01-29T02:13:18.570Z,82.53
2023-01-29T02:15:48.569Z,82.47
2023-01-29T02:18:17.960Z,82.52
2023-01-29T02:20:51.093Z,82.27
2023-01-29T02:23:38.989Z,81.97
2023-01-29T02:26:46.996Z,81.78
2023-01-29T02:29:27.168Z,82.17
2023-01-29T02:32:14.250Z,82.54
2023-01-29T02:35:05.421Z,82.90
2023-01-29T02:37:38.338Z,82.50
2023-01-29T02:40:15.428Z,82.65
2023-01-29T02:42:50.060Z,82.63
2023-01-29T02:45:20.510Z,83.30
2023-01-29T02:47:50.154Z,83.72
2023-01-29T02:50:21.531Z,83.76
2023-01-29T02:52:56.752Z,83.89
2023-01-29T02:55:29.758Z,82.40
2023-01-29T02:58:00.709Z,82.70
2023-01-29T03:00:36.639Z,82.51
2023-01-29T03:03:08.799Z,81.30
2023-01-29T03:05:43.454Z,81.57
2023-01-29T03:08:15.419Z,82.00
2023-01-29T03:10:46.933Z,82.27
2023-01-29T03:13:16.393Z,82.74
2023-01-29T03:15:51.153Z,83.00
2023-01-29T03:18:20.134Z,83.25
2023-01-29T03:20:50.530Z,82.53
2023-01-29T03:23:27.136Z,81.90
2023-01-29T03:26:13.921Z,81.96
2023-01-29T03:29:01.152Z,82.63
2023-01-29T03:31:48.850Z,83.07
2023-01-29T03:34:24.144Z,82.80
2023-01-29T03:36:56.012Z,83.20
2023-01-29T03:39:24.244Z,81.85
2023-01-29T03:41:56.564Z,82.53
2023-01-29T03:44:31.619Z,82.67
2023-01-29T03:47:10.247Z,82.69
2023-01-29T03:49:46.160Z,82.90
2023-01-29T03:52:17.695Z,83.62
2023-01-29T03:54:55.394Z,83.93
2023-01-29T03:57:31.012Z,83.78
2023-01-29T04:00:04.574Z,83.89
2023-01-29T04:02:36.901Z,83.60
2023-01-29T04:05:07.659Z,83.06
2023-01-29T04:07:36.547Z,82.73
2023-01-29T04:10:07.187Z,83.64
2023-01-29T04:12:38.985Z,83.65
2023-01-29T04:15:10.762Z,83.08
2023-01-29T04:17:41.657Z,83.08
2023-01-29T04:20:11.277Z,83.13
2023-01-29T04:22:40.449Z,82.70
2023-01-29T04:25:15.495Z,83.16
2023-01-29T04:27:48.616Z,83.38
2023-01-29T04:30:25.403Z,83.01
2023-01-29T04:33:05.002Z,83.05
2023-01-29T04:35:38.231Z,83.08
2023-01-29T04:38:14.083Z,83.30
2023-01-29T04:40:59.588Z,83.56
2023-01-29T04:43:30.639Z,83.16
2023-01-29T04:46:09.535Z,82.77
2023-01-29T04:48:46.385Z,82.92
2023-01-29T04:51:18.918Z,82.80
2023-01-29T04:53:49.490Z,83.10
2023-01-29T04:56:20.379Z,83.32
2023-01-29T04:58:51.030Z,82.06
2023-01-29T05:01:20.394Z,82.92
2023-01-29T05:03:51.591Z,82.51
2023-01-29T05:06:19.656Z,82.44
2023-01-29T05:08:48.883Z,82.38
2023-01-29T05:11:17.664Z,82.56
2023-01-29T05:13:45.575Z,83.11
2023-01-29T05:16:16.620Z,83.80
2023-01-29T05:18:44.328Z,84.27
2023-01-29T05:21:13.283Z,84.10
2023-01-29T05:23:53.007Z,84.11
2023-01-29T05:26:38.643Z,83.75
2023-01-29T05:29:06.440Z,84.26
2023-01-29T05:31:34.116Z,84.12
2023-01-29T05:34:01.721Z,84.10
2023-01-29T05:36:30.719Z,84.22
2023-01-29T05:38:58.368Z,84.19
2023-01-29T05:41:25.939Z,84.32
2023-01-29T05:43:53.773Z,83.88
2023-01-29T05:46:21.345Z,83.53
2023-01-29T05:48:48.930Z,83.36
2023-01-29T05:51:16.503Z,82.86
2023-01-29T05:53:45.373Z,82.37
2023-01-29T05:56:12.924Z,81.78
2023-01-29T05:58:40.718Z,82.30
2023-01-29T06:01:12.907Z,83.39
2023-01-29T06:03:40.583Z,83.69
2023-01-29T06:06:08.334Z,84.18
2023-01-29T06:08:35.897Z,84.95
2023-01-29T06:11:05.656Z,85.15
2023-01-29T06:13:33.284Z,85.29
2023-01-29T06:16:01.015Z,85.12
2023-01-29T06:18:28.685Z,85.43
2023-01-29T06:20:56.284Z,86.22
2023-01-29T06:23:23.874Z,86.55
2023-01-29T06:25:51.474Z,86.48
2023-01-29T06:28:20.384Z,86.53
2023-01-29T06:33:17.532Z,86.78
2023-01-29T06:35:45.069Z,86.17
2023-01-29T06:38:12.658Z,85.97
2023-01-29T06:40:40.220Z,86.12
2023-01-29T06:43:07.833Z,86.47
2023-01-29T06:45:36.718Z,87.00
2023-01-29T06:48:04.497Z,86.99
2023-01-29T06:50:32.044Z,87.05
2023-01-29T06:53:00.180Z,86.57
2023-01-29T06:55:27.715Z,86.70
2023-01-29T06:57:55.342Z,86.12
2023-01-29T07:00:22.996Z,86.40
2023-01-29T07:02:52.009Z,86.37
2023-01-29T07:05:19.924Z,86.32
2023-01-29T07:07:47.495Z,86.74
2023-01-29T07:10:15.424Z,86.70
2023-01-29T07:12:43.332Z,86.73
2023-01-29T07:15:12.587Z,87.29
2023-01-29T07:17:40.578Z,86.89
2023-01-29T07:20:11.165Z,87.91
2023-01-29T07:22:38.835Z,88.06
2023-01-29T07:25:07.782Z,87.73
2023-01-29T07:27:35.328Z,87.86
2023-01-29T07:30:02.945Z,87.49
2023-01-29T07:32:30.511Z,86.64
2023-01-29T07:34:58.071Z,86.36
2023-01-29T07:37:26.997Z,86.13
2023-01-29T07:39:55.121Z,86.46
2023-01-29T07:42:23.356Z,86.35
2023-01-29T07:44:50.955Z,86.59
2023-01-29T07:47:18.513Z,87.36
2023-01-29T07:49:46.115Z,87.36
2023-01-29T07:52:13.782Z,86.27
2023-01-29T07:54:42.637Z,85.71
2023-01-29T07:57:10.138Z,85.47
2023-01-29T07:59:37.688Z,85.14
2023-01-29T08:02:05.430Z,84.50
2023-01-29T08:04:33.024Z,84.52
2023-01-29T08:07:00.599Z,84.38
2023-01-29T08:09:28.162Z,84.28
2023-01-29T08:11:57.184Z,83.89
2023-01-29T08:14:25.071Z,84.03
2023-01-29T08:16:52.666Z,83.73
2023-01-29T08:19:20.302Z,83.27
2023-01-29T08:21:47.962Z,82.66
2023-01-29T08:24:15.663Z,82.75
2023-01-29T08:26:43.334Z,83.16
2023-01-29T08:29:13.156Z,83.82
2023-01-29T08:31:40.730Z,83.94
2023-01-29T08:34:08.363Z,83.81
2023-01-29T08:36:36.296Z,83.45
2023-01-29T08:39:04.215Z,83.01
2023-01-29T08:41:31.818Z,83.11
2023-01-29T08:44:01.446Z,82.95
2023-01-29T08:46:30.398Z,83.81
2023-01-29T08:48:57.986Z,83.21
2023-01-29T08:51:26.574Z,82.26
2023-01-29T08:53:54.515Z,81.08
2023-01-29T08:56:22.405Z,80.91
2023-01-29T08:58:49.951Z,80.69
2023-01-29T09:01:17.688Z,80.51
2023-01-29T09:03:46.924Z,81.25
2023-01-29T09:06:15.772Z,81.46
2023-01-29T09:08:43.421Z,81.09
2023-01-29T09:11:11.560Z,80.88
2023-01-29T09:13:39.171Z,80.82
2023-01-29T09:16:07.528Z,80.42
2023-01-29T09:18:35.162Z,80.43
2023-01-29T09:21:04.779Z,80.03
2023-01-29T09:23:32.416Z,80.38
2023-01-29T09:26:00.209Z,80.17
2023-01-29T09:28:27.782Z,80.73
2023-01-29T09:30:55.407Z,80.75
2023-01-29T09:33:24.602Z,81.20
2023-01-29T09:35:52.216Z,81.66
2023-01-29T09:38:21.143Z,82.50
2023-01-29T09:40:56.851Z,81.80
2023-01-29T09:43:28.552Z,82.69
2023-01-29T09:45:59.133Z,83.02
2023-01-29T09:48:29.447Z,83.33
2023-01-29T09:50:59.936Z,83.51
2023-01-29T09:53:32.658Z,84.01
2023-01-29T09:56:03.130Z,83.63
2023-01-29T09:58:33.732Z,83.13
2023-01-29T10:01:09.089Z,83.56
2023-01-29T10:03:49.333Z,83.70
2023-01-29T10:06:23.851Z,83.37
2023-01-29T10:09:30.947Z,83.03
2023-01-29T10:12:03.926Z,83.46
2023-01-29T10:14:38.154Z,83.76
2023-01-29T10:17:16.208Z,83.54
2023-01-29T10:20:11.486Z,83.39
2023-01-29T10:22:47.072Z,83.51
2023-01-29T10:25:18.281Z,83.45
2023-01-29T10:27:49.916Z,82.73
2023-01-29T10:30:31.055Z,82.67
2023-01-29T10:33:00.924Z,82.71
2023-01-29T10:35:31.814Z,82.49
2023-01-29T10:38:09.934Z,82.39
2023-01-29T10:40:42.347Z,82.16
2023-01-29T10:43:12.823Z,82.43
2023-01-29T10:45:44.688Z,81.78
2023-01-29T10:48:35.529Z,80.92
2023-01-29T10:51:11.995Z,81.34
2023-01-29T10:53:48.265Z,80.74
2023-01-29T10:56:28.338Z,80.17
2023-01-29T10:58:57.542Z,79.49
2023-01-29T11:01:26.633Z,79.78
2023-01-29T11:03:58.315Z,80.02
2023-01-29T11:06:29.799Z,79.84
2023-01-29T11:09:01.056Z,78.97
2023-01-29T11:11:34.491Z,78.27
2023-01-29T11:14:07.184Z,77.00
2023-01-29T11:16:42.513Z,77.42
2023-01-29T11:19:10.366Z,77.74
2023-01-29T11:21:52.370Z,77.14
2023-01-29T11:24:20.372Z,76.73
2023-01-29T11:26:50.762Z,77.60
2023-01-29T11:29:40.294Z,77.28
2023-01-29T11:32:09.568Z,77.68
2023-01-29T11:34:57.206Z,76.81
2023-01-29T11:37:25.267Z,77.27
2023-01-29T11:39:53.255Z,77.61
2023-01-29T11:42:24.373Z,78.16
2023-01-29T11:44:51.908Z,77.44
2023-01-29T11:47:20.475Z,77.64
2023-01-29T11:49:49.959Z,78.36
2023-01-29T11:52:19.772Z,77.76
2023-01-29T11:54:50.003Z,78.48
2023-01-29T11:57:28.699Z,78.29
2023-01-29T11:59:58.088Z,78.84
2023-01-29T12:02:30.741Z,78.87
2023-01-29T12:04:59.739Z,78.45
2023-01-29T12:07:27.857Z,78.03
2023-01-29T12:09:57.524Z,77.58
2023-01-29T12:12:34.636Z,77.41
2023-01-29T12:15:07.490Z,77.28
2023-01-29T12:17:38.356Z,77.29
2023-01-29T12:20:12.067Z,76.04
2023-01-29T12:22:44.862Z,76.76
2023-01-29T12:25:20.275Z,77.15
2023-01-29T12:27:54.542Z,76.85
2023-01-29T12:30:24.815Z,77.03
2023-01-29T12:32:57.721Z,77.28
2023-01-29T12:35:27.302Z,77.34
2023-01-29T12:38:00.790Z,76.30
2023-01-29T12:40:30.591Z,77.38
2023-01-29T12:43:05.203Z,76.74
2023-01-29T12:45:33.722Z,77.04
2023-01-29T12:48:03.383Z,77.87
2023-01-29T12:50:34.529Z,76.84
2023-01-29T12:53:04.838Z,76.97
2023-01-29T12:55:38.270Z,76.01
2023-01-29T12:58:13.567Z,75.53
2023-01-29T13:00:45.097Z,75.67
2023-01-29T13:03:20.769Z,75.05
2023-01-29T13:05:50.977Z,74.32
2023-01-29T13:08:21.739Z,74.47
2023-01-29T13:10:51.907Z,74.40
2023-01-29T13:13:26.120Z,74.73
2023-01-29T13:15:54.074Z,73.88
2023-01-29T13:18:34.636Z,75.06
2023-01-29T13:21:02.305Z,75.78
2023-01-29T13:23:34.909Z,75.08
2023-01-29T13:26:02.683Z,75.75
2023-01-29T13:28:31.827Z,75.56
2023-01-29T13:31:14.511Z,75.78
2023-01-29T13:33:43.312Z,74.82
2023-01-29T13:36:17.029Z,74.38
2023-01-29T13:38:45.293Z,74.03
2023-01-29T13:41:13.206Z,74.26
2023-01-29T13:43:44.043Z,74.52
2023-01-29T13:46:13.547Z,74.19
2023-01-29T13:48:44.115Z,74.37
2023-01-29T13:51:15.513Z,75.30
2023-01-29T13:53:43.564Z,74.84
2023-01-29T13:56:29.325Z,73.48
2023-01-29T13:58:58.744Z,74.39
2023-01-29T14:02:04.890Z,75.91
2023-01-29T14:04:34.069Z,75.48
2023-01-29T14:07:03.105Z,74.92
2023-01-29T14:09:50.564Z,74.95
2023-01-29T14:12:39.200Z,74.28
2023-01-29T14:15:23.105Z,74.65
2023-01-29T14:18:18.244Z,74.77
2023-01-29T14:21:00.833Z,73.81
2023-01-29T14:23:40.353Z,74.66
2023-01-29T14:26:22.390Z,74.74
2023-01-29T14:28:55.281Z,74.70
2023-01-29T14:31:49.945Z,75.85
2023-01-29T14:34:23.681Z,75.85
2023-01-29T14:36:55.494Z,75.18
2023-01-29T14:39:29.548Z,75.01
2023-01-29T14:41:57.780Z,75.39
2023-01-29T14:44:59.154Z,75.36
2023-01-29T14:48:03.110Z,76.14
2023-01-29T14:51:06.735Z,76.03
2023-01-29T14:53:46.492Z,76.14
2023-01-29T14:56:17.251Z,76.65
2023-01-29T14:58:47.040Z,76.68
2023-01-29T15:01:22.577Z,76.72
2023-01-29T15:03:53.432Z,76.86
2023-01-29T15:06:25.894Z,76.37
2023-01-29T15:08:58.105Z,76.51
2023-01-29T15:11:35.390Z,76.91
2023-01-29T15:14:24.829Z,77.36
2023-01-29T15:17:00.529Z,77.86
2023-01-29T15:19:32.655Z,78.33
2023-01-29T15:22:05.002Z,78.47
2023-01-29T15:24:32.631Z,79.31
2023-01-29T15:27:00.305Z,78.70
2023-01-29T15:29:28.832Z,78.82
2023-01-29T15:31:56.972Z,79.60
2023-01-29T15:34:24.726Z,80.06
2023-01-29T15:36:53.662Z,80.69
2023-01-29T15:39:23.365Z,81.21
2023-01-29T15:41:52.108Z,81.92
2023-01-29T15:44:21.912Z,81.46
2023-01-29T15:46:52.395Z,82.21
2023-01-29T15:49:25.042Z,82.89
2023-01-29T15:51:58.994Z,82.36
2023-01-29T15:54:27.579Z,83.00
2023-01-29T15:56:55.521Z,83.94
2023-01-29T15:59:25.896Z,84.13
2023-01-29T16:01:53.704Z,84.25
2023-01-29T16:04:25.670Z,84.33
2023-01-29T16:06:54.295Z,84.50
2023-01-29T16:09:25.298Z,85.15
2023-01-29T16:11:54.517Z,85.12
2023-01-29T16:14:25.370Z,85.34
2023-01-29T16:16:53.462Z,86.50
2023-01-29T16:19:23.511Z,86.23
2023-01-29T16:21:57.796Z,86.98
2023-01-29T16:24:27.256Z,86.58
2023-01-29T16:26:59.473Z,86.35
2023-01-29T16:29:31.690Z,86.99
2023-01-29T16:32:02.270Z,87.12
2023-01-29T16:34:33.169Z,87.62
2023-01-29T16:37:02.089Z,87.73
2023-01-29T16:39:33.720Z,88.17
2023-01-29T16:42:26.431Z,88.84
2023-01-29T16:44:56.592Z,89.27
2023-01-29T16:47:29.637Z,89.67
2023-01-29T16:49:58.304Z,89.85
2023-01-29T16:52:28.301Z,89.58
2023-01-29T16:55:17.149Z,88.81
2023-01-29T16:57:45.557Z,88.68
2023-01-29T17:00:21.566Z,87.58
2023-01-29T17:02:52.211Z,87.31
2023-01-29T17:05:23.308Z,87.23
2023-01-29T17:07:51.195Z,87.67
2023-01-29T17:10:21.475Z,88.16
2023-01-29T17:12:54.675Z,88.40
2023-01-29T17:15:31.988Z,88.71
2023-01-29T17:18:01.146Z,88.74
2023-01-29T17:20:28.804Z,89.25
2023-01-29T17:22:56.395Z,90.15
2023-01-29T17:25:25.377Z,90.69
2023-01-29T17:27:53.155Z,91.07
2023-01-29T17:30:22.833Z,90.94
2023-01-29T17:32:50.419Z,91.49
2023-01-29T17:35:18.825Z,91.35
2023-01-29T17:37:46.685Z,91.89
2023-01-29T17:40:22.779Z,92.24
2023-01-29T17:42:51.805Z,92.35
2023-01-29T17:45:19.759Z,92.73
2023-01-29T17:47:47.555Z,92.31
2023-01-29T17:50:20.474Z,92.49
2023-01-29T17:52:48.252Z,92.65
2023-01-29T17:55:16.465Z,92.47
2023-01-29T17:57:44.237Z,92.77
2023-01-29T18:00:18.156Z,92.82
2023-01-29T18:02:46.079Z,92.49
2023-01-29T18:05:14.825Z,91.91
2023-01-29T18:07:44.136Z,92.38
2023-01-29T18:10:15.457Z,92.46
2023-01-29T18:12:43.099Z,92.22
2023-01-29T18:15:11.260Z,91.93
2023-01-29T18:17:40.604Z,92.50
2023-01-29T18:20:18.876Z,92.38
2023-01-29T18:22:46.833Z,92.24
2023-01-29T18:25:15.200Z,92.53
2023-01-29T18:27:43.079Z,92.70
2023-01-29T18:30:11.773Z,93.21
2023-01-29T18:32:40.813Z,93.60
2023-01-29T18:35:09.658Z,93.64
2023-01-29T18:37:37.224Z,94.11
2023-01-29T18:40:06.622Z,94.48
2023-01-29T18:42:35.942Z,94.21
2023-01-29T18:45:03.649Z,94.39
2023-01-29T18:47:31.197Z,94.74
2023-01-29T18:50:00.089Z,94.99
2023-01-29T18:52:27.775Z,95.09
2023-01-29T18:54:55.566Z,95.32
2023-01-29T18:58:26.066Z,95.20
2023-01-29T19:00:12.064Z,95.19
2023-01-29T19:02:39.695Z,95.55
2023-01-29T19:05:09.129Z,95.71
2023-01-29T19:07:36.755Z,95.46
2023-01-29T19:10:06.693Z,95.10
2023-01-29T19:12:34.583Z,94.92
2023-01-29T19:15:02.320Z,95.10
2023-01-29T19:17:29.988Z,94.96
2023-01-29T19:20:01.934Z,94.98
2023-01-29T19:22:30.916Z,95.53
2023-01-29T19:24:58.583Z,95.93
2023-01-29T19:27:30.199Z,96.12
2023-01-29T19:29:58.106Z,96.08
2023-01-29T19:32:25.784Z,96.49
2023-01-29T19:34:53.475Z,96.52
2023-01-29T19:37:21.029Z,96.74
2023-01-29T19:39:49.960Z,96.83
2023-01-29T19:42:17.565Z,96.35
2023-01-29T19:44:45.392Z,96.24
2023-01-29T19:47:13.000Z,95.98
2023-01-29T19:49:41.305Z,95.86
2023-01-29T19:52:14.812Z,95.62
2023-01-29T19:54:46.078Z,96.15
2023-01-29T19:57:15.120Z,96.13
2023-01-29T19:59:45.607Z,96.09
2023-01-29T20:02:13.444Z,95.53
2023-01-29T20:04:41.031Z,95.24
2023-01-29T20:07:09.291Z,94.72
2023-01-29T20:09:36.879Z,95.48
2023-01-29T20:12:04.755Z,95.40
2023-01-29T20:14:33.805Z,95.82
2023-01-29T20:17:01.585Z,96.32
2023-01-29T20:19:29.165Z,95.83
2023-01-29T20:21:56.800Z,95.52
2023-01-29T20:24:24.709Z,95.71
2023-01-29T20:26:52.351Z,96.47
2023-01-29T20:29:20.002Z,95.99
2023-01-29T20:31:49.162Z,95.86
2023-01-29T20:34:17.268Z,95.25
2023-01-29T20:36:44.919Z,95.77
2023-01-29T20:39:12.525Z,96.69
2023-01-29T20:41:42.493Z,96.57
2023-01-29T20:44:12.580Z,95.82
2023-01-29T20:46:40.149Z,95.65
2023-01-29T20:49:11.779Z,95.55
2023-01-29T20:51:39.459Z,95.52
2023-01-29T20:54:07.970Z,95.01
2023-01-29T20:56:41.922Z,95.11
2023-01-29T20:59:12.179Z,94.88
2023-01-29T21:04:16.137Z,94.23
2023-01-29T21:06:43.697Z,93.41
2023-01-29T21:09:11.325Z,93.76
2023-01-29T21:11:38.891Z,93.44
2023-01-29T21:14:07.122Z,94.14
2023-01-29T21:16:34.733Z,93.84
2023-01-29T21:19:03.333Z,93.88
2023-01-29T21:21:32.285Z,93.63
2023-01-29T21:23:59.940Z,93.92
2023-01-29T21:26:27.578Z,94.03
2023-01-29T21:28:55.256Z,93.88
2023-01-29T21:31:22.944Z,94.37
2023-01-29T21:33:50.629Z,94.35
2023-01-29T21:36:18.271Z,94.33
2023-01-29T21:38:47.225Z,94.82
2023-01-29T21:41:14.813Z,94.35
2023-01-29T21:43:41.476Z,94.84
2023-01-29T21:46:11.811Z,94.46
2023-01-29T21:48:41.788Z,94.04
2023-01-29T21:51:09.740Z,94.34
2023-01-29T21:53:37.695Z,94.01
2023-01-29T21:56:07.316Z,94.34
2023-01-29T21:58:34.952Z,94.50
2023-01-29T22:01:35.730Z,94.18
2023-01-29T22:03:50.705Z,93.93
2023-01-29T22:06:18.968Z,93.82
2023-01-29T22:08:48.402Z,93.72
2023-01-29T22:11:18.049Z,93.87
2023-01-29T22:13:45.768Z,94.08
2023-01-29T22:16:13.429Z,93.67
2023-01-29T22:18:43.107Z,93.68
2023-01-29T22:21:15.794Z,93.79
2023-01-29T22:23:49.454Z,93.38
2023-01-29T22:26:25.043Z,93.77
2023-01-29T22:28:54.184Z,93.86
2023-01-29T22:31:22.303Z,94.33
2023-01-29T22:33:53.251Z,94.45
2023-01-29T22:36:21.208Z,94.51
2023-01-29T22:38:49.537Z,93.49
2023-01-29T22:41:20.188Z,93.81
2023-01-29T22:43:49.577Z,94.08
2023-01-29T22:46:17.538Z,94.03
2023-01-29T22:48:47.603Z,94.63
2023-01-29T22:51:15.462Z,94.48
2023-01-29T22:53:44.441Z,93.50
2023-01-29T22:56:14.160Z,94.21
2023-01-29T22:58:42.373Z,94.26
2023-01-29T23:01:12.131Z,94.31
2023-01-29T23:03:40.859Z,94.61
2023-01-29T23:06:08.775Z,94.82
2023-01-29T23:08:36.614Z,94.18
2023-01-29T23:11:18.039Z,93.82
2023-01-29T23:13:48.678Z,93.51
2023-01-29T23:16:19.291Z,93.61
2023-01-29T23:18:51.277Z,93.30
2023-01-29T23:21:19.317Z,93.81
2023-01-29T23:23:47.200Z,93.91
2023-01-29T23:26:32.733Z,94.30
2023-01-29T23:29:01.594Z,94.10
2023-01-29T23:31:31.730Z,93.78
2023-01-29T23:33:59.715Z,93.84
2023-01-29T23:36:27.963Z,93.33
2023-01-29T23:38:56.826Z,93.41
2023-01-29T23:41:24.755Z,93.85
2023-01-29T23:43:53.901Z,93.94
2023-01-29T23:46:22.637Z,93.91
2023-01-29T23:48:52.050Z,93.77
2023-01-29T23:51:22.080Z,94.48
2023-01-29T23:53:50.178Z,94.45
2023-01-29T23:56:19.338Z,95.14
2023-01-29T23:58:47.272Z,95.15
